Departure ICAO
Arrival ICAO

The revolutionary moving map for travelling passengers has finally arrived
More information here

LFMD Cannes Mandelieu - EGKB London Biggin Hill


Distance 545 NM


LFMN Nice Cote D'Azur VFR

METAR LFMN 231330Z 17004KT 9999 FEW021 BKN045 25/20 Q1017 NOSIG

TAF LFMN 230800Z 2309/2415 34006KT 9999 FEW020 BKN040 BECMG 2309/2311 18010KT FEW020 BECMG 2317/2319 VRB03KT TEMPO 2319/2403 OVC010 BECMG 2401/2403 08013KT BECMG 2407/2409 BKN014


LFMD Cannes Mandelieu VFR

METAR LFMD 231330Z AUTO 15005KT 100V200 9999 OVC045 27/20 Q1017 NOSIG

TAF LFMD 230800Z 2309/2409 VRB03KT 9999 BKN025 BECMG 2309/2311 16010KT BECMG 2317/2319 VRB03KT CAVOK TEMPO 2400/2403 27020G35KT BECMG 2405/2407 BKN010


LFLB Chambery Aix Les Bains VFR CAVOK

METAR LFLB 231330Z AUTO 36004KT 300V020 CAVOK 28/15 Q1018 NOSIG

TAF LFLB 231100Z 2312/2412 20005KT 9999 BKN060 BECMG 2316/2318 36008KT TEMPO 2316/2324 VRB15G35KT 4000 SHRA FEW030CB SCT035TCU BKN040 PROB40 TEMPO 2317/2323 2000 TSRA SCT030CB BKN035TCU PROB30 TEMPO 2318/2324 VRB20G45KT BECMG 2406/2408 36015G25KT SCT030 SCT050


LFLS Grenoble Saint Geoirs VFR CAVOK

METAR LFLS 231330Z AUTO 28003KT 200V350 CAVOK 30/14 Q1019 NOSIG

TAF LFLS 230800Z 2309/2409 09005KT 9999 BKN045 BECMG 2315/2317 32010KT PROB40 TEMPO 2317/2320 4000 SHRA SCT040TCU TEMPO 2320/2324 32015G25KT 5000 RA BKN012 PROB40 TEMPO 2322/2324 32020G35KT 3000 RA OVC006 BECMG 2400/2402 BKN015 BKN040 BECMG 2406/2408 SCT015


LFLL Lyon Saint Exupery VFR CAVOK

METAR LFLL 231330Z VRB02KT CAVOK 30/12 Q1018 NOSIG

TAF LFLL 231100Z 2312/2418 VRB03KT CAVOK BECMG 2315/2317 33006KT BECMG 2317/2319 34012KT OVC035 TEMPO 2321/2323 34017KT 6000 SHRA BKN014 OVC030 BECMG 2409/2411 CAVOK TEMPO 2411/2416 36020KT


LFLY Lyon Bron VFR CAVOK

METAR LFLY 231330Z AUTO 24003KT 150V320 CAVOK 31/13 Q1018 TEMPO 34015G25KT SHRA SCT050TCU

TAF LFLY 231100Z 2312/2412 20005KT CAVOK BECMG 2315/2317 34012KT PROB40 TEMPO 2315/2320 34015G25KT 5000 SHRA SCT050TCU TEMPO 2320/2401 35015G35KT 4000 RA BKN020 BECMG 2401/2403 BKN015 BECMG 2408/2410 SCT025 TEMPO 2408/2412 36015G30KT


LFLN Saint Yan VFR CAVOK

METAR LFLN 231330Z AUTO 26011KT 220V300 CAVOK 28/15 Q1018 TEMPO 27015G30KT

TAF LFLN 231100Z 2312/2321 24010KT 9999 OVC032 TEMPO 2312/2318 27015G30KT BECMG 2317/2318 -RA OVC020 TEMPO 2318/2321 34020G35KT


LFPM Melun Villaroche VFR CB

METAR LFPM 231330Z AUTO 25020KT 9999 FEW013/// BKN064/// OVC074/// ///CB 20/18 Q1013


LFPO Paris Orly VFR CB

METAR LFPO 231330Z 25016G26KT 6000 -RA BKN018 FEW020CB OVC076 20/18 Q1012 TEMPO 25025G40KT 2500 RA

TAF LFPO 231100Z 2312/2418 23020G30KT 9999 BKN011 TEMPO 2312/2315 25025G40KT 2500 RA BKN006 SCT015CB BECMG 2315/2318 32010G20KT BKN020 BECMG 2321/2324 34004KT SCT040 BECMG 2400/2403 VRB03KT CAVOK BECMG 2409/2412 02005KT SCT035 BECMG 2415/2418 CAVOK


LFPG Paris Charles De Gaulle VFR

METAR LFPG 231330Z 34019KT 6000 -RA SCT009 BKN019 15/13 Q1013 TEMPO 32020G35KT

TAF LFPG 231100Z 2312/2418 24020G35KT 9999 BKN020 TX21/2312Z TN08/2406Z TEMPO 2312/2314 28030G45KT 1500 +RA BKN010 BKN012TCU BECMG 2313/2315 32020G40KT PROB30 TEMPO 2315/2318 3000 -RA BECMG 2315/2317 34015G30KT BECMG 2319/2321 33010KT


LFPB Paris Le Bourget VFR CB

METAR LFPB 231330Z AUTO 32010KT 280V020 9999 2700 RA BKN013/// BKN021/// BKN037/// ///CB 16/15 Q1013 TEMPO 3000 -RA BECMG 34015G30KT SCT020 BKN025

TAF LFPB 231100Z 2312/2412 24020G35KT 9999 SCT020 BKN025 TEMPO 2312/2314 28030G45KT 1500 +RA BKN010 BKN012TCU BECMG 2313/2315 32020G40KT PROB30 TEMPO 2315/2318 3000 -RA BECMG 2315/2317 34015G30KT BECMG 2319/2321 33010KT


LFPV Villacoublay Velizy IFR CAT I CB

METAR LFPV 231330Z AUTO 29020G32KT 2900 R27/1000U R09/1400U -RA BR SCT009/// BKN017/// BKN029/// ///CB 17/16 Q1014 TEMPO 4000 SHRA BECMG BKN012


LFPN Toussous Le Noble IFR CAT I CB

METAR LFPN 231330Z AUTO 30020KT 270V330 4700 R25R/1400U RA BR SCT011/// BKN017/// BKN023/// ///CB 17/15 Q1014 BECMG 32010G20KT 9999 NSW BKN020

TAF LFPN 231100Z 2312/2321 23020G30KT 9999 BKN012 TEMPO 2312/2315 25025G40KT 2500 RA BKN006 SCT015CB BECMG 2315/2318 32010G20KT BKN020


LFPT Pontoise Cormeilles En Vexin VFR

METAR LFPT 231330Z AUTO 34017KT 9999 BKN015 BKN021 OVC035 15/13 Q1014


LFOB Beauvais Tille VFR CB

METAR LFOB 231330Z AUTO 33009KT 9999 BKN013/// BKN032/// BKN066/// ///TCU 14/13 Q1014 TEMPO 3000 SHRA BKN008 BKN015CB BECMG 34015G25KT

TAF AMD LFOB 231227Z 2312/2412 34015G25KT 9999 BKN015 TEMPO 2312/2320 3000 SHRA BKN008 BKN015CB BECMG 2321/2324 30005KT NSC TEMPO 2403/2407 4000 BR


LFAT Le Tourquet Paris Plage VFR CB

METAR LFAT 231330Z AUTO 35019KT 330V030 9999 -DZ SCT017 BKN024 OVC035 12/10 Q1017 TEMPO 34020G35KT 3000 SHRA BKN008 BKN015CB

TAF LFAT 231100Z 2312/2321 34015G25KT 9999 BKN015 TEMPO 2312/2316 34020G35KT 3000 SHRA BKN008 BKN015CB BECMG 2319/2321 27005KT


EGMD Lydd VFR

METAR EGMD 231320Z 34018KT 9999 -RA FEW012 SCT048 10/09 Q1018 RERA

TAF EGMD 231054Z 2312/2321 35020KT 9999 SCT030 TEMPO 2312/2313 8000 RA BKN007 BECMG 2315/2318 31010KT


EGKA Shoreham By Sea Shoreham VFR

METAR EGKA 231320Z 34011KT 9999 SCT022 11/09 Q1019

TAF EGKA 231054Z 2312/2318 35012KT 9999 SCT030 TEMPO 2312/2314 35018G28KT 8000 RA BKN008


EGKB London Biggin Hill VFR

METAR EGKB 231320Z 33011KT 290V350 9999 FEW015 10/06 Q1019

TAF EGKB 231054Z 2312/2321 34012KT 9999 SCT030 TEMPO 2312/2314 35018G28KT 7000 RA BKN007


EGKK London Gatwick VFR

METAR EGKK 231320Z 33011KT 9999 SCT013 11/08 Q1019

TAF EGKK 231056Z 2312/2418 35008KT 9999 SCT030 PROB30 TEMPO 2312/2314 35015G25KT 8000 RA BKN008 PROB30 2401/2408 6000


EGLC London City VFR

METAR EGLC 231320Z AUTO 30011KT 280V350 9999 NCD 12/06 Q1019

TAF EGLC 231054Z 2312/2321 33010KT 9999 SCT030 PROB40 TEMPO 2312/2314 33015G25KT 9000 RA BKN012


EGSS London Stansted VFR

METAR EGSS 231320Z AUTO 31009KT 9999 NCD 11/07 Q1019

TAF EGSS 231100Z 2312/2418 34012KT 9999 FEW035 TEMPO 2313/2318 33015G25KT


EGLL London Heathrow VFR

METAR EGLL 231320Z AUTO 31012KT 9999 FEW032 12/07 Q1020 NOSIG

TAF EGLL 231053Z 2312/2418 33010KT 9999 SCT040 TEMPO 2312/2314 34015G25KT 7000 RA PROB30 2400/2408 7000


EGWU Northolt VFR

METAR EGWU 231250Z 34010KT 9999 FEW030 BKN100 11/07 Q1019 BLU NOSIG

TAF EGWU 231051Z 2312/2406 34012KT 9999 BKN030


EGLF London Farnborough VFR

METAR EGLF 231320Z 33012KT 290V360 9999 FEW022 12/07 Q1020

TAF EGLF 231054Z 2312/2319 34012KT 9999 SCT030 TEMPO 2312/2313 7000 RA BKN014 PROB30 TEMPO 2312/2316 35015G25KT



NOTAMS LFMD

 NOTAMS EGKB